Time;durP1;ratioP1;P1;durP2;ratioP2;P2;SDS_P1;SDS_P2;PMS_P1;PMS_P2;Temp;Humidity;BMP_temperature;BMP_pressure;BME280_temperature;BME280_humidity;BME280_pressure;Samples;Min_cycle;Max_cycle;Signal;HPM_P1;HPM_P2
2022/01/31 00:00:14;;;;;;;1.57;1.47;;;2.00;82.00;1.10;98664.00;;;;5135039;28;20663;-76
2022/01/31 00:02:45;;;;;;;1.43;1.33;;;2.00;81.80;1.20;98681.00;;;;5135244;28;20202;-75
2022/01/31 00:05:12;;;;;;;1.70;1.60;;;2.00;82.40;1.20;98686.00;;;;5135056;28;20306;-76
2022/01/31 00:07:40;;;;;;;2.80;2.53;;;2.10;81.70;1.00;98681.00;;;;5135135;28;20204;-76
2022/01/31 00:10:11;;;;;;;1.63;1.00;;;2.10;81.60;1.10;98670.00;;;;5116826;28;20508;-76
2022/01/31 00:12:49;;;;;;;0.60;0.60;;;2.00;81.90;1.20;98677.00;;;;5135056;28;20206;-76
2022/01/31 00:15:16;;;;;;;1.13;1.13;;;2.10;82.40;1.30;98668.00;;;;5135000;28;20192;-76
2022/01/31 00:17:44;;;;;;;2.60;2.33;;;2.10;82.20;1.30;98678.00;;;;5134928;28;20328;-77
2022/01/31 00:20:13;;;;;;;1.97;1.87;;;2.20;81.90;1.30;98662.00;;;;5134830;28;20286;-76
2022/01/31 00:22:40;;;;;;;1.03;1.03;;;2.20;81.50;1.30;98662.00;;;;5134899;28;20223;-75
2022/01/31 00:25:08;;;;;;;1.00;1.00;;;2.10;81.90;1.20;98651.00;;;;5134891;28;20197;-75
2022/01/31 00:27:34;;;;;;;0.80;0.80;;;2.10;81.60;1.10;98633.00;;;;5134647;28;20229;-75
2022/01/31 00:30:01;;;;;;;0.60;0.60;;;2.10;81.80;1.20;98636.00;;;;5116609;28;20612;-76
2022/01/31 00:32:29;;;;;;;1.10;1.10;;;2.10;82.30;1.20;98636.00;;;;5134462;28;20545;-79
2022/01/31 00:34:56;;;;;;;0.63;0.63;;;2.10;82.20;1.30;98646.00;;;;5134677;28;20714;-76
2022/01/31 00:37:23;;;;;;;0.60;0.60;;;2.10;82.40;1.40;98645.00;;;;5134561;28;20200;-76
2022/01/31 00:39:49;;;;;;;1.47;1.37;;;2.20;82.10;1.40;98645.00;;;;5116478;28;20227;-76
2022/01/31 00:42:19;;;;;;;0.73;0.73;;;2.30;81.70;1.50;98629.00;;;;5134538;28;20234;-76
2022/01/31 00:44:50;;;;;;;1.53;1.53;;;2.30;81.50;1.40;98612.00;;;;5134602;28;20228;-76
2022/01/31 00:47:23;;;;;;;0.87;0.87;;;2.30;80.90;1.40;98596.00;;;;5134688;28;20215;-75
2022/01/31 00:49:52;;;;;;;0.93;0.93;;;2.30;81.20;1.50;98617.00;;;;5134400;28;20225;-76
2022/01/31 00:52:20;;;;;;;0.80;0.80;;;2.40;81.40;1.60;98592.00;;;;5116625;28;20214;-76
2022/01/31 00:54:47;;;;;;;1.13;1.10;;;2.50;81.30;1.50;98576.00;;;;5134555;28;20289;-76
2022/01/31 00:57:14;;;;;;;0.97;0.97;;;2.50;80.60;1.50;98566.00;;;;5136766;27;20534;-75
2022/01/31 00:59:41;;;;;;;1.20;1.20;;;2.40;80.70;1.40;98564.00;;;;5138222;28;20287;-74
2022/01/31 01:02:07;;;;;;;1.40;1.40;;;2.30;80.70;1.60;98569.00;;;;5139768;28;20220;-75
2022/01/31 01:04:34;;;;;;;0.73;0.73;;;2.40;81.10;1.40;98558.00;;;;5141591;28;20190;-76
2022/01/31 01:07:01;;;;;;;1.40;1.10;;;2.40;80.60;1.50;98561.00;;;;5120823;28;20576;-75
2022/01/31 01:09:28;;;;;;;0.93;0.93;;;2.50;80.10;1.50;98560.00;;;;5137863;28;20229;-76
2022/01/31 01:11:54;;;;;;;0.83;0.83;;;2.40;80.40;1.70;98553.00;;;;5137693;28;20307;-75
2022/01/31 01:14:21;;;;;;;0.90;0.90;;;2.50;80.80;1.80;98559.00;;;;5137813;28;20204;-75
2022/01/31 01:16:47;;;;;;;1.50;1.50;;;2.60;80.30;1.70;98547.00;;;;5119917;28;20216;-76
2022/01/31 01:19:14;;;;;;;1.77;1.67;;;2.60;79.50;1.50;98535.00;;;;5137726;28;20228;-76
2022/01/31 01:21:41;;;;;;;0.80;0.80;;;2.50;79.90;1.60;98536.00;;;;5137571;28;20219;-75
2022/01/31 01:24:08;;;;;;;1.00;1.00;;;2.50;80.20;1.50;98521.00;;;;5137464;28;20222;-75
2022/01/31 01:26:34;;;;;;;0.80;0.80;;;2.50;80.70;1.40;98512.00;;;;5137564;28;20206;-76
2022/01/31 01:29:01;;;;;;;0.70;0.70;;;2.30;81.30;1.40;98488.00;;;;5137537;28;20726;-76
2022/01/31 01:31:27;;;;;;;0.73;0.73;;;2.40;81.40;1.50;98485.00;;;;5119488;28;20237;-75
2022/01/31 01:33:54;;;;;;;1.30;1.20;;;2.40;81.50;1.60;98464.00;;;;5137366;28;20219;-76
2022/01/31 01:36:21;;;;;;;0.63;0.63;;;2.50;81.10;1.60;98464.00;;;;5137353;28;20256;-75
2022/01/31 01:38:48;;;;;;;0.90;0.90;;;2.50;80.90;1.60;98465.00;;;;5137392;28;20221;-77
2022/01/31 01:41:15;;;;;;;0.80;0.80;;;2.50;81.30;1.50;98445.00;;;;5137127;28;20216;-77
2022/01/31 01:43:41;;;;;;;22.47;2.40;;;2.50;81.20;1.50;98448.00;;;;5119356;28;20204;-77
2022/01/31 01:46:09;;;;;;;1.07;0.90;;;2.40;81.60;1.50;98402.00;;;;5137172;28;20234;-76
2022/01/31 01:48:37;;;;;;;0.70;0.70;;;2.40;81.70;1.60;98387.00;;;;5137405;28;20224;-77
2022/01/31 01:51:04;;;;;;;0.60;0.60;;;2.50;81.10;1.60;98373.00;;;;5137291;28;20235;-76
2022/01/31 01:53:31;;;;;;;1.13;1.10;;;2.50;81.30;1.70;98379.00;;;;5119235;28;20195;-76
2022/01/31 01:55:59;;;;;;;1.00;1.00;;;2.50;80.80;1.70;98368.00;;;;5137405;28;20202;-77
2022/01/31 01:58:30;;;;;;;1.00;1.00;;;2.50;80.60;1.50;98311.00;;;;5137446;28;20204;-75
2022/01/31 02:00:59;;;;;;;1.23;1.10;;;2.50;81.00;1.50;98334.00;;;;5137567;28;20273;-77
2022/01/31 02:03:28;;;;;;;1.03;1.03;;;2.40;81.70;1.50;98319.00;;;;5137203;28;20243;-76
2022/01/31 02:05:56;;;;;;;1.23;1.17;;;2.40;82.30;1.70;98317.00;;;;5137074;28;20209;-75
2022/01/31 02:08:24;;;;;;;0.73;0.73;;;2.50;81.40;1.60;98313.00;;;;5136870;27;20358;-75
2022/01/31 02:10:51;;;;;;;0.93;0.90;;;2.50;81.80;1.60;98293.00;;;;5137056;28;20223;-74
2022/01/31 02:13:19;;;;;;;1.10;1.10;;;2.50;81.60;1.50;98304.00;;;;5136961;28;20196;-74
2022/01/31 02:15:49;;;;;;;0.97;0.97;;;2.50;82.00;1.70;98296.00;;;;5136898;28;20215;-75
2022/01/31 02:18:21;;;;;;;0.80;0.80;;;2.50;82.00;1.70;98286.00;;;;5136896;28;20183;-74
2022/01/31 02:20:52;;;;;;;0.87;0.87;;;2.60;81.90;1.60;98285.00;;;;5136719;28;20214;-75
2022/01/31 02:23:21;;;;;;;0.83;0.83;;;2.50;82.00;1.80;98288.00;;;;5136884;28;20247;-76
2022/01/31 02:25:57;;;;;;;0.73;0.73;;;2.60;81.70;1.60;98292.00;;;;5136690;28;20224;-76
2022/01/31 02:28:27;;;;;;;2.23;2.03;;;2.50;81.80;1.80;98287.00;;;;5136639;28;20261;-76
2022/01/31 02:30:55;;;;;;;0.80;0.80;;;2.60;81.40;1.80;98288.00;;;;5136559;28;20238;-76
2022/01/31 02:33:22;;;;;;;1.53;1.43;;;2.60;81.00;1.70;98254.00;;;;5118449;28;20203;-75
2022/01/31 02:35:53;;;;;;;1.03;1.03;;;2.60;81.50;1.80;98296.00;;;;5136552;28;20508;-75
2022/01/31 02:38:20;;;;;;;0.73;0.73;;;2.70;81.40;1.70;98285.00;;;;5136603;28;20547;-76
2022/01/31 02:40:48;;;;;;;0.70;0.70;;;2.60;81.50;1.80;98263.00;;;;5118682;28;20208;-75
2022/01/31 02:43:19;;;;;;;0.83;0.83;;;2.60;81.30;1.60;98258.00;;;;5137032;28;20197;-75
2022/01/31 02:45:50;;;;;;;1.00;1.00;;;2.60;81.30;1.60;98228.00;;;;5136411;28;20207;-75
2022/01/31 02:48:22;;;;;;;3.10;1.83;;;2.60;81.90;1.60;98220.00;;;;5136260;28;20276;-75
2022/01/31 02:50:48;;;;;;;0.87;0.87;;;2.50;82.50;1.90;98217.00;;;;5136207;28;20220;-77
2022/01/31 02:53:24;;;;;;;1.47;1.33;;;2.70;82.30;1.80;98201.00;;;;5136260;28;20838;-77
2022/01/31 02:55:52;;;;;;;0.90;0.90;;;2.60;81.50;1.90;98184.00;;;;5118314;28;20207;-76
2022/01/31 02:58:19;;;;;;;1.53;1.40;;;2.70;81.60;1.70;98157.00;;;;5136176;28;20204;-76
2022/01/31 03:00:47;;;;;;;1.13;1.13;;;2.60;81.90;1.90;98156.00;;;;5136551;28;20196;-76
2022/01/31 03:03:13;;;;;;;0.90;0.90;;;2.70;82.10;1.80;98160.00;;;;5136589;28;20248;-75
2022/01/31 03:05:40;;;;;;;0.90;0.90;;;2.70;81.30;1.70;98173.00;;;;5136618;28;20799;-75
2022/01/31 03:08:08;;;;;;;1.20;1.13;;;2.60;81.50;1.70;98173.00;;;;5136771;28;20220;-75
2022/01/31 03:10:35;;;;;;;1.03;1.03;;;2.60;82.10;1.70;98153.00;;;;5136419;28;20323;-76
2022/01/31 03:13:03;;;;;;;0.77;0.77;;;2.50;82.50;1.70;98130.00;;;;5137047;28;20200;-75
2022/01/31 03:15:30;;;;;;;1.27;1.27;;;2.60;81.90;1.60;98124.00;;;;5136871;28;20234;-75
2022/01/31 03:17:58;;;;;;;0.90;0.90;;;2.60;82.30;1.60;98095.00;;;;5136961;28;20203;-75
2022/01/31 03:20:27;;;;;;;0.90;0.90;;;2.60;82.70;1.80;98100.00;;;;5118095;28;20283;-76
2022/01/31 03:22:54;;;;;;;2.77;1.67;;;2.60;83.10;1.80;98092.00;;;;5136976;28;20220;-76
2022/01/31 03:25:21;;;;;;;0.70;0.70;;;2.70;82.40;1.70;98080.00;;;;5137378;28;20223;-76
2022/01/31 03:27:49;;;;;;;2.00;1.03;;;2.60;81.90;1.70;98071.00;;;;5146550;28;20254;-76
2022/01/31 03:30:19;;;;;;;0.80;0.80;;;2.70;82.30;1.80;98054.00;;;;5136412;28;20303;-76
2022/01/31 03:32:46;;;;;;;0.60;0.60;;;2.70;82.00;1.70;98024.00;;;;5135742;28;20215;-73
2022/01/31 03:35:17;;;;;;;0.80;0.80;;;2.60;82.30;1.90;98006.00;;;;5119632;28;20212;-77
2022/01/31 03:37:44;;;;;;;1.00;1.00;;;2.70;81.90;1.90;98009.00;;;;5135823;28;20281;-75
2022/01/31 03:40:14;;;;;;;1.20;1.13;;;2.80;81.10;1.90;98038.00;;;;5135663;28;20631;-76
2022/01/31 03:42:41;;;;;;;1.43;1.37;;;2.80;80.60;2.20;98058.00;;;;5117659;28;20269;-75
2022/01/31 03:45:10;;;;;;;0.80;0.80;;;2.90;80.40;2.20;98074.00;;;;5135636;28;20517;-75
2022/01/31 03:47:44;;;;;;;0.70;0.70;;;3.00;79.00;2.20;98065.00;;;;5135728;28;20698;-76
2022/01/31 03:50:13;;;;;;;0.60;0.60;;;3.00;78.70;2.20;98070.00;;;;5135319;28;20234;-75
2022/01/31 03:52:40;;;;;;;0.83;0.83;;;3.00;78.70;2.20;98066.00;;;;5135262;28;20299;-75
2022/01/31 03:55:08;;;;;;;1.83;1.73;;;3.10;78.80;2.50;98076.00;;;;5135331;28;20664;-76
2022/01/31 03:57:35;;;;;;;0.80;0.80;;;3.20;77.10;2.30;98068.00;;;;5135393;28;20207;-75
2022/01/31 04:00:04;;;;;;;1.43;1.33;;;3.20;77.00;2.10;98053.00;;;;5135433;28;20702;-75
2022/01/31 04:02:31;;;;;;;1.07;1.00;;;3.10;77.80;2.40;98040.00;;;;5135282;28;20207;-77
2022/01/31 04:04:58;;;;;;;0.80;0.80;;;3.10;77.90;2.20;98048.00;;;;5135297;28;20279;-75
2022/01/31 04:07:25;;;;;;;0.83;0.83;;;3.10;77.90;2.20;98048.00;;;;5135189;28;20336;-76
2022/01/31 04:09:53;;;;;;;1.03;1.03;;;3.10;77.80;2.40;98046.00;;;;5135175;28;20231;-75
2022/01/31 04:12:20;;;;;;;0.70;0.70;;;3.20;77.00;2.30;98034.00;;;;5135198;28;20229;-76
2022/01/31 04:14:46;;;;;;;0.73;0.73;;;3.30;76.60;2.50;98043.00;;;;5135280;28;20260;-76
2022/01/31 04:17:13;;;;;;;0.60;0.60;;;3.30;76.30;2.40;98033.00;;;;5135210;28;20689;-76
2022/01/31 04:19:42;;;;;;;2.40;2.20;;;3.30;75.90;2.30;98028.00;;;;5135134;28;20654;-76
2022/01/31 04:22:12;;;;;;;1.90;1.80;;;3.20;76.20;2.40;98025.00;;;;5135143;28;20193;-77
2022/01/31 04:24:41;;;;;;;0.80;0.80;;;3.30;75.60;2.60;98021.00;;;;5117404;28;20193;-76
2022/01/31 04:27:08;;;;;;;0.73;0.73;;;3.40;75.20;2.50;98004.00;;;;5135162;28;20293;-77
2022/01/31 04:29:39;;;;;;;0.77;0.77;;;3.40;75.10;2.60;98008.00;;;;5135020;28;20702;-76
2022/01/31 04:32:07;;;;;;;1.60;1.60;;;3.50;74.40;2.70;97986.00;;;;5137290;27;20195;-75
2022/01/31 04:34:33;;;;;;;1.50;1.07;;;3.50;74.50;2.80;97993.00;;;;5138526;28;20231;-76
2022/01/31 04:37:00;;;;;;;1.33;1.27;;;3.60;73.80;2.80;97987.00;;;;5138620;28;20200;-76
2022/01/31 04:39:29;;;;;;;0.60;0.60;;;3.60;73.70;2.90;97977.00;;;;5138488;28;20282;-75
2022/01/31 04:41:56;;;;;;;0.80;0.80;;;3.70;72.20;3.00;97958.00;;;;5138656;28;20217;-76
2022/01/31 04:44:23;;;;;;;0.90;0.90;;;3.70;72.90;3.00;97950.00;;;;5138514;28;20279;-75
2022/01/31 04:46:51;;;;;;;1.57;1.47;;;3.80;72.80;2.90;97923.00;;;;5138352;28;20210;-76
2022/01/31 04:49:21;;;;;;;1.43;1.33;;;3.70;73.10;3.00;97921.00;;;;5138414;28;20651;-75
2022/01/31 04:51:48;;;;;;;0.90;0.90;;;3.80;72.90;3.40;97905.00;;;;5138263;28;20229;-75
2022/01/31 04:54:15;;;;;;;3.40;1.47;;;4.00;72.00;3.80;97892.00;;;;5138390;28;20258;-75
2022/01/31 04:56:43;;;;;;;0.70;0.70;;;4.40;69.10;3.90;97897.00;;;;5138216;28;20234;-75
2022/01/31 04:59:13;;;;;;;0.93;0.93;;;4.60;67.50;4.00;97849.00;;;;5138186;28;20303;-75
2022/01/31 05:01:42;;;;;;;0.80;0.80;;;4.70;67.00;4.20;97864.00;;;;5138106;28;20338;-75
2022/01/31 05:04:08;;;;;;;0.80;0.80;;;4.90;65.40;4.20;97878.00;;;;5138162;28;20632;-75
2022/01/31 05:06:38;;;;;;;0.70;0.70;;;5.00;65.20;4.20;97850.00;;;;5138081;28;20189;-74
2022/01/31 05:09:05;;;;;;;1.60;1.03;;;5.10;65.10;4.50;97843.00;;;;5137854;28;20213;-75
2022/01/31 05:11:31;;;;;;;0.60;0.60;;;5.20;63.90;4.50;97832.00;;;;5119765;28;20219;-75
2022/01/31 05:13:59;;;;;;;0.70;0.70;;;5.30;63.80;4.50;97817.00;;;;5137743;28;20209;-75
2022/01/31 05:16:25;;;;;;;0.70;0.70;;;5.40;63.60;4.60;97805.00;;;;5137941;28;20549;-75
2022/01/31 05:18:52;;;;;;;0.80;0.80;;;5.40;63.40;4.60;97783.00;;;;5137682;28;20381;-75
2022/01/31 05:21:20;;;;;;;3.60;1.63;;;5.40;63.60;4.60;97789.00;;;;5137810;28;20201;-75
2022/01/31 05:23:49;;;;;;;0.57;0.57;;;5.40;63.80;4.60;97794.00;;;;5137687;28;20610;-75
2022/01/31 05:26:16;;;;;;;0.90;0.90;;;5.40;63.40;4.70;97793.00;;;;5137707;28;20201;-75
2022/01/31 05:28:43;;;;;;;2.20;1.00;;;5.50;62.90;4.70;97796.00;;;;5137626;28;20189;-75
2022/01/31 05:31:10;;;;;;;0.70;0.70;;;5.50;63.00;4.70;97823.00;;;;5137472;28;20228;-75
2022/01/31 05:33:37;;;;;;;0.93;0.93;;;5.50;62.40;4.70;97766.00;;;;5137395;28;20200;-75
2022/01/31 05:36:04;;;;;;;0.60;0.60;;;5.50;62.50;4.80;97788.00;;;;5137360;28;20315;-75
2022/01/31 05:38:34;;;;;;;1.00;1.00;;;5.60;62.80;4.70;97768.00;;;;5137340;28;20662;-75
2022/01/31 05:41:05;;;;;;;2.00;1.37;;;5.60;62.60;4.70;97772.00;;;;5137393;28;20212;-75
2022/01/31 05:43:31;;;;;;;0.50;0.50;;;5.60;63.20;4.90;97732.00;;;;5137086;27;20300;-75
2022/01/31 05:45:58;;;;;;;1.17;1.17;;;5.60;62.10;4.80;97725.00;;;;5137350;28;20193;-75
2022/01/31 05:48:25;;;;;;;0.80;0.80;;;5.60;62.30;4.70;97724.00;;;;5137220;28;20208;-74
2022/01/31 05:50:54;;;;;;;0.60;0.60;;;5.60;63.10;4.80;97743.00;;;;5119033;28;20323;-76
2022/01/31 05:53:22;;;;;;;1.93;1.80;;;5.60;62.30;4.80;97727.00;;;;5137036;28;20221;-75
2022/01/31 05:55:49;;;;;;;1.43;0.90;;;5.60;62.30;4.90;97724.00;;;;5137301;28;20524;-76
2022/01/31 05:58:15;;;;;;;1.03;1.03;;;5.70;62.20;4.90;97708.00;;;;5137058;28;20231;-75
2022/01/31 06:00:44;;;;;;;0.77;0.77;;;5.70;61.70;5.00;97702.00;;;;5137184;28;20224;-76
2022/01/31 06:03:10;;;;;;;1.17;1.17;;;5.70;61.90;4.90;97700.00;;;;5137021;28;20580;-76
2022/01/31 06:05:38;;;;;;;0.70;0.70;;;5.70;62.30;4.90;97700.00;;;;5137077;28;20186;-76
2022/01/31 06:08:05;;;;;;;0.60;0.60;;;5.70;62.20;4.80;97693.00;;;;5136934;28;20254;-76
2022/01/31 06:10:33;;;;;;;0.97;0.97;;;5.70;62.40;5.00;97689.00;;;;5137083;28;20233;-77
2022/01/31 06:13:00;;;;;;;4.33;0.87;;;5.70;63.20;4.90;97683.00;;;;5136866;28;20216;-76
2022/01/31 06:15:26;;;;;;;0.53;0.53;;;5.80;63.70;4.90;97685.00;;;;5136794;28;20716;-75
2022/01/31 06:17:53;;;;;;;1.00;1.00;;;5.70;64.00;4.90;97670.00;;;;5136860;28;20496;-74
2022/01/31 06:20:19;;;;;;;1.47;1.47;;;5.70;64.70;4.80;97681.00;;;;5136800;28;20193;-76
2022/01/31 06:22:50;;;;;;;0.60;0.60;;;5.60;65.30;4.90;97675.00;;;;5136702;28;20212;-76
2022/01/31 06:25:17;;;;;;;0.90;0.90;;;5.60;65.30;4.80;97674.00;;;;5136810;28;20197;-76
2022/01/31 06:27:44;;;;;;;0.87;0.87;;;5.70;66.30;4.80;97685.00;;;;5136836;28;20197;-77
2022/01/31 06:30:11;;;;;;;1.80;1.70;;;5.60;66.70;4.50;97691.00;;;;5136620;28;20235;-76
2022/01/31 06:32:40;;;;;;;0.60;0.60;;;5.50;67.50;4.50;97674.00;;;;5139005;28;20245;-76
2022/01/31 06:35:08;;;;;;;1.23;1.23;;;5.40;69.00;4.60;97670.00;;;;5139934;28;20256;-76
2022/01/31 06:37:36;;;;;;;0.77;0.77;;;5.40;70.00;4.40;97666.00;;;;5137086;28;20301;-76
2022/01/31 06:40:04;;;;;;;0.60;0.60;;;5.30;72.00;4.30;97666.00;;;;5136746;28;20292;-76
2022/01/31 06:42:31;;;;;;;0.70;0.70;;;5.10;73.70;4.20;97678.00;;;;5136629;28;20487;-75
2022/01/31 06:44:57;;;;;;;0.97;0.90;;;5.10;75.30;4.20;97677.00;;;;5136361;28;20624;-75
2022/01/31 06:47:25;;;;;;;1.10;1.10;;;5.10;77.40;4.10;97678.00;;;;5137014;28;20331;-76
2022/01/31 06:49:51;;;;;;;0.73;0.73;;;4.90;78.90;4.20;97681.00;;;;5136392;28;20213;-75
2022/01/31 06:52:18;;;;;;;0.87;0.87;;;4.90;79.10;4.20;97676.00;;;;5136385;28;20204;-76
2022/01/31 06:54:50;;;;;;;1.47;1.37;;;5.00;79.20;4.00;97685.00;;;;5135163;27;20524;-76
2022/01/31 06:57:17;;;;;;;0.83;0.83;;;;;3.90;97685.00;;;;5118144;28;20368;-75
2022/01/31 06:59:44;;;;;;;1.00;1.00;;;4.80;80.10;4.10;97686.00;;;;5135999;28;20232;-75
2022/01/31 07:02:10;;;;;;;0.60;0.60;;;5.00;81.20;4.10;97694.00;;;;5136165;28;20193;-76
2022/01/31 07:04:37;;;;;;;1.00;1.00;;;4.90;81.40;4.00;97676.00;;;;5136081;28;20288;-75
2022/01/31 07:07:04;;;;;;;0.80;0.80;;;4.90;81.70;3.90;97680.00;;;;5136139;28;20628;-76
2022/01/31 07:09:30;;;;;;;0.90;0.90;;;4.80;83.70;4.10;97685.00;;;;5136276;28;20281;-76
2022/01/31 07:12:00;;;;;;;0.83;0.83;;;4.90;83.60;4.10;97681.00;;;;5135931;28;20239;-76
2022/01/31 07:14:31;;;;;;;0.67;0.67;;;4.90;85.40;4.10;97658.00;;;;5135910;28;20209;-76
2022/01/31 07:16:59;;;;;;;0.93;0.90;;;4.90;85.70;4.00;97659.00;;;;5135790;28;20220;-76
2022/01/31 07:19:28;;;;;;;0.60;0.60;;;4.80;88.30;3.90;97693.00;;;;5117770;28;20640;-76
2022/01/31 07:21:55;;;;;;;0.70;0.70;;;4.80;88.40;3.80;97690.00;;;;5135588;28;20197;-75
2022/01/31 07:24:30;;;;;;;0.50;0.50;;;4.60;90.10;4.00;97673.00;;;;5135777;28;20184;-74
2022/01/31 07:26:59;;;;;;;0.60;0.60;;;4.70;90.60;3.70;97692.00;;;;5135876;28;20227;-76
2022/01/31 07:29:26;;;;;;;0.60;0.60;;;4.60;91.90;3.90;97692.00;;;;5135875;28;20262;-77
2022/01/31 07:31:53;;;;;;;0.90;0.90;;;4.70;92.40;3.70;97703.00;;;;5135580;28;20218;-77
2022/01/31 07:34:20;;;;;;;0.93;0.93;;;4.60;93.00;3.80;97710.00;;;;5135464;28;20255;-77
2022/01/31 07:36:47;;;;;;;0.70;0.70;;;4.70;93.10;3.80;97701.00;;;;5117663;28;20265;-78
2022/01/31 07:39:17;;;;;;;0.60;0.60;;;4.60;93.00;3.80;97697.00;;;;5117327;28;20233;-76
2022/01/31 07:41:45;;;;;;;1.17;1.07;;;4.70;93.20;3.80;97700.00;;;;5135517;28;20288;-76
2022/01/31 07:44:14;;;;;;;0.80;0.80;;;4.60;93.10;3.80;97706.00;;;;5135460;28;20239;-76
2022/01/31 07:46:41;;;;;;;0.60;0.60;;;4.60;93.90;3.80;97707.00;;;;5135242;28;20296;-77
2022/01/31 07:49:09;;;;;;;0.60;0.60;;;4.70;93.90;3.80;97706.00;;;;5135626;28;20275;-80
2022/01/31 07:51:39;;;;;;;0.53;0.53;;;4.70;93.40;3.80;97718.00;;;;5135371;28;20659;-79
2022/01/31 07:54:06;;;;;;;0.73;0.73;;;4.70;94.30;3.80;97710.00;;;;5135253;28;20227;-76
2022/01/31 07:56:33;;;;;;;0.70;0.70;;;4.70;94.20;3.80;97711.00;;;;5134864;28;20480;-77
2022/01/31 07:59:02;;;;;;;0.70;0.70;;;4.70;93.30;3.80;97701.00;;;;5134835;28;20201;-75
2022/01/31 08:01:29;;;;;;;0.70;0.70;;;4.70;93.30;3.90;97716.00;;;;5117182;28;20696;-74
2022/01/31 08:03:55;;;;;;;0.60;0.60;;;4.70;92.80;4.00;97714.00;;;;5135142;28;20236;-76
2022/01/31 08:06:22;;;;;;;0.70;0.70;;;4.80;91.80;3.90;97731.00;;;;5135060;27;20236;-76
2022/01/31 08:08:50;;;;;;;0.70;0.70;;;4.80;91.30;3.90;97699.00;;;;5135087;28;20290;-76
2022/01/31 08:11:19;;;;;;;0.90;0.90;;;4.80;92.00;4.00;97709.00;;;;5134949;28;20496;-77
2022/01/31 08:13:54;;;;;;;0.60;0.60;;;4.80;92.40;3.90;97711.00;;;;5135070;28;20228;-76
2022/01/31 08:16:21;;;;;;;0.60;0.60;;;4.80;91.30;4.00;97718.00;;;;5117423;28;20248;-74
2022/01/31 08:18:48;;;;;;;0.50;0.50;;;4.80;90.90;3.90;97730.00;;;;5135533;28;20197;-76
2022/01/31 08:21:16;;;;;;;0.60;0.60;;;4.80;91.20;4.00;97744.00;;;;5135005;28;20644;-74
2022/01/31 08:23:43;;;;;;;0.60;0.60;;;4.80;90.60;4.00;97750.00;;;;5134945;28;20209;-76
2022/01/31 08:26:16;;;;;;;0.60;0.60;;;4.80;89.90;4.00;97736.00;;;;5117027;28;20209;-78
2022/01/31 08:28:54;;;;;;;0.60;0.60;;;4.80;91.60;4.10;97755.00;;;;5134862;28;20237;-75
2022/01/31 08:31:24;;;;;;;0.80;0.80;;;4.90;90.70;4.00;97731.00;;;;5135095;28;20224;-81
2022/01/31 08:34:05;;;;;;;0.60;0.60;;;4.90;90.90;4.00;97668.00;;;;5135200;28;20197;-77
2022/01/31 08:36:34;;;;;;;0.60;0.60;;;4.80;90.40;4.00;97721.00;;;;5134875;28;20213;-77
2022/01/31 08:39:08;;;;;;;0.60;0.60;;;4.90;91.40;4.00;97717.00;;;;5116944;28;20197;-74
2022/01/31 08:41:42;;;;;;;3.50;1.10;;;4.80;91.00;4.10;97704.00;;;;5134860;28;20221;-76
2022/01/31 08:44:11;;;;;;;0.60;0.60;;;4.80;92.40;4.10;97708.00;;;;5135051;28;20229;-76
2022/01/31 08:46:39;;;;;;;0.87;0.87;;;4.90;91.50;4.00;97698.00;;;;5134876;28;20198;-76
2022/01/31 08:49:06;;;;;;;0.70;0.70;;;4.90;90.60;4.00;97717.00;;;;5134835;28;20204;-77
2022/01/31 08:51:32;;;;;;;0.63;0.63;;;4.90;90.50;4.10;97715.00;;;;5135310;28;20320;-77
2022/01/31 08:54:04;;;;;;;0.97;0.97;;;4.90;90.60;4.20;97698.00;;;;5135060;28;20615;-76
2022/01/31 08:56:35;;;;;;;0.67;0.67;;;4.90;90.50;4.20;97707.00;;;;5135513;28;20220;-77
2022/01/31 08:59:02;;;;;;;0.93;0.93;;;5.00;89.30;4.20;97708.00;;;;5135393;28;20209;-76
2022/01/31 09:01:32;;;;;;;0.60;0.60;;;5.00;89.20;4.10;97691.00;;;;5141932;28;20276;-78
2022/01/31 09:04:03;;;;;;;0.87;0.87;;;4.90;89.90;4.20;97687.00;;;;5135983;28;20273;-76
2022/01/31 09:06:33;;;;;;;0.70;0.70;;;5.00;88.80;4.30;97684.00;;;;5134745;28;20209;-82
2022/01/31 09:09:05;;;;;;;0.60;0.60;;;5.10;88.70;4.40;97682.00;;;;5134709;28;20620;-78
2022/01/31 09:11:35;;;;;;;0.70;0.70;;;5.20;87.80;4.60;97672.00;;;;5134392;28;20212;-79
2022/01/31 09:14:03;;;;;;;0.50;0.50;;;5.30;87.70;4.60;97670.00;;;;5116253;28;20592;-78
2022/01/31 09:16:30;;;;;;;0.73;0.70;;;5.50;86.20;4.70;97670.00;;;;5134365;27;20288;-76
2022/01/31 09:18:57;;;;;;;0.43;0.43;;;5.50;86.20;4.80;97678.00;;;;5137866;28;20193;-78
2022/01/31 09:21:23;;;;;;;0.80;0.80;;;5.60;84.80;5.00;97686.00;;;;5137839;28;20246;-77
2022/01/31 09:23:53;;;;;;;0.50;0.50;;;5.70;84.70;5.00;97680.00;;;;5137740;28;20213;-77
2022/01/31 09:26:22;;;;;;;0.60;0.60;;;5.80;83.80;5.00;97693.00;;;;5137666;28;20240;-78
2022/01/31 09:28:53;;;;;;;0.60;0.60;;;5.80;84.20;5.20;97648.00;;;;5137738;28;20214;-78
2022/01/31 09:31:21;;;;;;;0.50;0.50;;;5.90;83.40;5.10;97686.00;;;;5137386;28;20232;-77
2022/01/31 09:33:47;;;;;;;0.60;0.60;;;5.90;82.60;5.20;97677.00;;;;5137618;28;20219;-79
2022/01/31 09:36:18;;;;;;;0.60;0.60;;;5.90;80.70;5.40;97687.00;;;;5137573;28;20201;-77
2022/01/31 09:38:45;;;;;;;0.70;0.70;;;6.10;80.60;5.50;97662.00;;;;5119414;28;20235;-77
2022/01/31 09:41:16;;;;;;;0.60;0.60;;;6.20;81.40;5.50;97674.00;;;;5137550;28;20221;-79
2022/01/31 09:44:03;;;;;;;0.60;0.60;;;6.30;79.20;5.30;97674.00;;;;5137562;28;20537;-78
2022/01/31 09:49:11;;;;;;;2.10;0.83;;;6.10;80.90;5.30;97683.00;;;;5133673;28;20664;-78
2022/01/31 09:51:38;;;;;;;0.70;0.70;;;6.10;80.70;5.20;97709.00;;;;5137167;28;20687;-78
2022/01/31 09:54:05;;;;;;;0.60;0.60;;;6.00;79.00;5.30;97692.00;;;;5137353;28;20193;-83
2022/01/31 09:56:37;;;;;;;0.63;0.63;;;6.00;79.90;5.30;97682.00;;;;5137341;28;20278;-79
2022/01/31 09:59:06;;;;;;;0.60;0.60;;;6.10;80.80;5.30;97705.00;;;;5137398;28;20220;-81
2022/01/31 10:01:40;;;;;;;0.60;0.60;;;6.00;80.20;5.20;97701.00;;;;5119313;28;20254;-77
2022/01/31 10:04:16;;;;;;;0.50;0.50;;;6.00;80.50;5.30;97695.00;;;;5137095;28;20671;-80
2022/01/31 10:06:48;;;;;;;0.67;0.67;;;6.10;81.00;5.20;97682.00;;;;5119238;28;20254;-77
2022/01/31 10:09:19;;;;;;;0.70;0.70;;;6.00;80.70;5.30;97684.00;;;;5136996;28;20205;-76
2022/01/31 10:11:49;;;;;;;0.90;0.90;;;6.00;80.60;5.20;97677.00;;;;5136735;28;20236;-78
2022/01/31 10:17:25;;;;;;;0.77;0.77;;;6.00;80.40;5.10;97695.00;;;;5139134;28;20221;-76
2022/01/31 10:20:00;;;;;;;1.57;1.50;;;5.90;80.50;5.20;97684.00;;;;5140083;28;20245;-75
2022/01/31 10:22:29;;;;;;;1.00;1.00;;;6.00;79.80;5.10;97691.00;;;;5137071;28;20188;-76
2022/01/31 10:25:06;;;;;;;0.90;0.90;;;5.90;80.00;5.20;97699.00;;;;5136848;28;20576;-77
2022/01/31 10:27:37;;;;;;;0.60;0.60;;;6.00;80.40;5.00;97698.00;;;;5136791;28;20197;-76
2022/01/31 10:30:11;;;;;;;1.13;1.13;;;5.80;80.40;5.10;97690.00;;;;5136464;27;20193;-76
2022/01/31 10:32:45;;;;;;;0.70;0.70;;;5.90;80.50;5.10;97679.00;;;;5137019;28;20213;-80
2022/01/31 10:35:14;;;;;;;1.00;0.83;;;5.90;80.40;5.10;97673.00;;;;5136822;28;20193;-77
2022/01/31 10:37:43;;;;;;;0.50;0.50;;;5.90;79.70;5.00;97687.00;;;;5118314;28;20220;-76
2022/01/31 10:45:53;;;;;;;0.60;0.60;;;6.00;79.00;5.30;97646.00;;;;5136623;28;20254;-78
2022/01/31 10:54:28;;;;;;;1.03;1.03;;;6.00;78.70;5.10;97644.00;;;;5118165;28;20600;-80
2022/01/31 10:56:57;;;;;;;0.57;0.57;;;5.90;77.30;5.10;97632.00;;;;5136310;28;20194;-80
2022/01/31 10:59:27;;;;;;;0.60;0.60;;;5.90;78.00;5.10;97639.00;;;;5136196;28;20241;-77
2022/01/31 11:01:59;;;;;;;0.63;0.63;;;5.90;77.30;5.00;97668.00;;;;5136145;28;20583;-79
2022/01/31 11:04:32;;;;;;;0.50;0.50;;;5.80;76.70;5.00;97619.00;;;;5136141;28;20632;-78
2022/01/31 11:07:01;;;;;;;1.00;1.00;;;5.80;76.60;5.10;97643.00;;;;5136300;28;20217;-76
2022/01/31 11:09:31;;;;;;;0.60;0.60;;;5.90;75.80;5.20;97651.00;;;;5136127;28;20197;-78
2022/01/31 11:11:59;;;;;;;0.60;0.60;;;5.90;76.50;5.40;97636.00;;;;5135942;28;20771;-76
2022/01/31 11:14:26;;;;;;;0.70;0.70;;;6.10;75.50;5.40;97620.00;;;;5136069;28;20208;-78
2022/01/31 11:16:55;;;;;;;0.67;0.67;;;6.10;74.50;5.50;97648.00;;;;5136108;28;20231;-76
2022/01/31 11:19:30;;;;;;;0.90;0.90;;;6.30;71.20;5.40;97638.00;;;;5136150;28;20304;-81
2022/01/31 11:22:02;;;;;;;0.60;0.60;;;6.20;70.70;5.50;97618.00;;;;5135893;28;20608;-76
2022/01/31 11:24:35;;;;;;;0.63;0.63;;;6.20;70.60;5.50;97683.00;;;;5135900;28;20232;-77
2022/01/31 11:27:09;;;;;;;0.50;0.50;;;6.30;70.20;5.40;97632.00;;;;5136053;28;20213;-77
2022/01/31 11:29:40;;;;;;;0.60;0.60;;;6.20;71.20;5.50;97645.00;;;;5136396;28;20194;-76
2022/01/31 11:32:08;;;;;;;0.60;0.60;;;6.30;71.70;5.50;97641.00;;;;5136412;28;20217;-77